createdAt,value
2018-04-27T00:01:44.445Z,0.00
2018-04-27T00:02:44.487Z,0.00
2018-04-27T00:04:37.479Z,0.00
2018-04-27T00:05:37.525Z,0.00
2018-04-27T00:07:30.512Z,0.00
2018-04-27T00:08:30.562Z,0.00
2018-04-27T00:10:23.554Z,0.00
2018-04-27T00:11:23.608Z,0.00
2018-04-27T00:13:16.602Z,0.00
2018-04-27T00:14:16.652Z,0.00
2018-04-27T00:16:09.631Z,0.00
2018-04-27T00:17:09.691Z,0.00
2018-04-27T00:19:02.682Z,0.00
2018-04-27T00:20:02.731Z,0.00
2018-04-27T00:21:55.716Z,0.00
2018-04-27T00:22:55.767Z,0.00
2018-04-27T00:24:48.748Z,0.00
2018-04-27T00:25:48.808Z,0.00
2018-04-27T00:27:41.796Z,0.00
2018-04-27T00:28:41.848Z,0.00
2018-04-27T00:30:34.829Z,0.00
2018-04-27T00:31:34.886Z,0.00
2018-04-27T00:33:27.877Z,0.00
2018-04-27T00:34:27.988Z,0.00
2018-04-27T00:36:20.906Z,0.00
2018-04-27T00:37:20.964Z,0.00
2018-04-27T00:39:13.948Z,0.00
2018-04-27T00:40:14.000Z,0.00
2018-04-27T00:42:07.041Z,0.00
2018-04-27T00:43:07.040Z,0.00
2018-04-27T00:45:00.025Z,0.00
2018-04-27T00:46:00.086Z,0.00
2018-04-27T00:47:53.077Z,0.00
2018-04-27T00:48:53.125Z,0.00
2018-04-27T00:50:46.112Z,0.00
2018-04-27T00:51:46.168Z,0.00
2018-04-27T00:53:39.154Z,0.00
2018-04-27T00:54:39.203Z,0.00
2018-04-27T00:56:32.186Z,0.00
2018-04-27T00:57:32.243Z,0.00
2018-04-27T00:59:25.230Z,0.00
2018-04-27T01:00:25.282Z,0.00
2018-04-27T01:02:18.276Z,0.00
2018-04-27T01:03:18.333Z,0.00
2018-04-27T01:05:11.306Z,0.00
2018-04-27T01:06:11.367Z,0.00
2018-04-27T01:08:04.358Z,0.00
2018-04-27T01:09:04.409Z,0.00
2018-04-27T01:10:57.387Z,0.00
2018-04-27T01:11:57.446Z,0.00
2018-04-27T01:13:50.432Z,0.00
2018-04-27T01:14:50.484Z,0.00
2018-04-27T01:16:43.467Z,0.00
2018-04-27T01:17:43.534Z,0.00
2018-04-27T01:19:36.518Z,0.00
2018-04-27T01:20:36.670Z,0.00
2018-04-27T01:22:29.556Z,0.00
2018-04-27T01:23:29.608Z,0.00
2018-04-27T01:25:22.587Z,0.00
2018-04-27T01:26:22.647Z,0.00
2018-04-27T01:28:15.631Z,0.00
2018-04-27T01:29:15.681Z,0.00
2018-04-27T01:31:08.661Z,0.00
2018-04-27T01:32:08.719Z,0.00
2018-04-27T01:34:01.706Z,0.00
2018-04-27T01:35:01.758Z,0.00
2018-04-27T01:36:54.740Z,0.00
2018-04-27T01:37:54.799Z,0.00
2018-04-27T01:39:47.783Z,0.00
2018-04-27T01:40:47.834Z,0.00
2018-04-27T01:42:40.826Z,0.00
2018-04-27T01:43:40.876Z,0.00
2018-04-27T01:45:33.854Z,0.00
2018-04-27T01:46:33.912Z,0.00
2018-04-27T01:48:26.898Z,0.00
2018-04-27T01:49:26.951Z,0.00
2018-04-27T01:51:19.935Z,0.00
2018-04-27T01:52:19.995Z,0.00
2018-04-27T01:54:12.979Z,0.00
2018-04-27T01:55:13.032Z,0.00
2018-04-27T01:57:06.013Z,0.00
2018-04-27T01:58:06.072Z,0.00
2018-04-27T01:59:59.056Z,0.00
2018-04-27T02:00:59.107Z,0.00
2018-04-27T02:02:52.098Z,0.00
2018-04-27T02:03:52.153Z,0.00
2018-04-27T02:05:45.134Z,0.00
2018-04-27T02:06:45.186Z,0.00
2018-04-27T02:08:38.177Z,0.00
2018-04-27T02:09:38.225Z,0.00
2018-04-27T02:11:31.215Z,0.00
2018-04-27T02:12:31.268Z,0.00
2018-04-27T02:14:24.259Z,0.00
2018-04-27T02:15:24.317Z,0.00
2018-04-27T02:17:17.286Z,0.00
2018-04-27T02:18:17.343Z,0.00
2018-04-27T02:20:10.329Z,0.00
2018-04-27T02:21:10.379Z,0.00
2018-04-27T02:23:03.371Z,0.00
2018-04-27T02:24:03.418Z,0.00
2018-04-27T02:25:56.400Z,0.00
2018-04-27T02:26:56.455Z,0.00
2018-04-27T02:28:49.438Z,0.00
2018-04-27T02:29:49.490Z,0.00
2018-04-27T02:31:42.475Z,0.00
2018-04-27T02:32:42.531Z,0.00
2018-04-27T02:34:35.514Z,0.00
2018-04-27T02:35:35.567Z,0.00
2018-04-27T02:37:28.547Z,0.00
2018-04-27T02:38:28.608Z,0.00
2018-04-27T02:40:21.591Z,0.00
2018-04-27T02:41:21.640Z,0.00
2018-04-27T02:43:14.632Z,0.00
2018-04-27T02:44:14.675Z,0.00
2018-04-27T02:46:07.654Z,0.00
2018-04-27T02:47:07.712Z,0.00
2018-04-27T02:49:00.696Z,0.00
2018-04-27T02:50:00.748Z,0.00
2018-04-27T02:51:53.726Z,0.00
2018-04-27T02:52:53.784Z,0.00
2018-04-27T02:54:46.770Z,0.00
2018-04-27T02:55:46.946Z,0.00
2018-04-27T02:57:39.807Z,0.00
2018-04-27T02:58:39.862Z,0.00
2018-04-27T03:00:32.847Z,0.00
2018-04-27T03:01:32.893Z,0.00
2018-04-27T03:03:25.877Z,0.00
2018-04-27T03:04:25.928Z,0.00
2018-04-27T03:06:18.915Z,0.00
2018-04-27T03:07:18.973Z,0.00
2018-04-27T03:09:11.959Z,0.00
2018-04-27T03:10:12.013Z,0.00
2018-04-27T03:12:04.994Z,0.00
2018-04-27T03:13:05.052Z,0.00
2018-04-27T03:14:58.036Z,0.00
2018-04-27T03:15:58.089Z,0.00
2018-04-27T03:17:51.067Z,0.00
2018-04-27T03:18:51.126Z,0.00
2018-04-27T03:20:44.111Z,0.00
2018-04-27T03:21:44.165Z,0.00
2018-04-27T03:23:37.161Z,0.00
2018-04-27T03:24:37.202Z,0.00
2018-04-27T03:26:30.186Z,0.00
2018-04-27T03:27:30.238Z,0.00
2018-04-27T03:29:23.221Z,0.00
2018-04-27T03:30:23.275Z,0.00
2018-04-27T03:32:16.253Z,0.00
2018-04-27T03:33:16.308Z,0.00
2018-04-27T03:35:09.295Z,4.00
2018-04-27T03:36:09.347Z,4.00
2018-04-27T03:38:02.338Z,0.00
2018-04-27T03:39:02.397Z,4.00
2018-04-27T03:40:55.382Z,4.00
2018-04-27T03:41:55.435Z,4.00
2018-04-27T03:43:48.420Z,4.00
2018-04-27T03:44:48.472Z,8.00
2018-04-27T03:46:41.450Z,8.00
2018-04-27T03:47:41.508Z,8.00
2018-04-27T03:49:34.494Z,16.00
2018-04-27T03:50:34.545Z,16.00
2018-04-27T03:52:27.527Z,24.00
2018-04-27T03:53:27.582Z,28.00
2018-04-27T03:55:20.567Z,36.00
2018-04-27T03:56:20.619Z,40.00
2018-04-27T03:58:13.600Z,48.00
2018-04-27T03:59:13.657Z,52.00
2018-04-27T04:01:06.694Z,64.00
2018-04-27T04:02:06.694Z,68.00
2018-04-27T04:03:59.679Z,88.00
2018-04-27T04:04:59.730Z,96.00
2018-04-27T04:06:52.712Z,116.00
2018-04-27T04:07:52.768Z,128.00
2018-04-27T04:09:45.753Z,156.00
2018-04-27T04:10:45.804Z,164.00
2018-04-27T04:12:38.811Z,184.00
2018-04-27T04:13:38.864Z,196.00
2018-04-27T04:15:31.829Z,220.00
2018-04-27T04:16:31.879Z,236.00
2018-04-27T04:18:24.860Z,260.00
2018-04-27T04:19:24.917Z,272.00
2018-04-27T04:21:17.902Z,304.00
2018-04-27T04:22:17.955Z,320.00
2018-04-27T04:24:10.943Z,352.00
2018-04-27T04:25:10.991Z,372.00
2018-04-27T04:27:03.972Z,408.00
2018-04-27T04:28:04.032Z,428.00
2018-04-27T04:29:57.011Z,468.00
2018-04-27T04:30:57.063Z,488.00
2018-04-27T04:32:50.042Z,536.00
2018-04-27T04:33:50.099Z,560.00
2018-04-27T04:35:43.130Z,612.00
2018-04-27T04:36:43.260Z,644.00
2018-04-27T04:38:36.119Z,704.00
2018-04-27T04:39:36.178Z,740.00
2018-04-27T04:41:29.161Z,848.00
2018-04-27T04:42:29.212Z,884.00
2018-04-27T04:44:22.197Z,956.00
2018-04-27T04:45:22.247Z,1004.00
2018-04-27T04:47:15.229Z,1104.00
2018-04-27T04:48:15.285Z,1168.00
2018-04-27T04:50:08.270Z,1288.00
2018-04-27T04:51:08.323Z,1376.00
2018-04-27T04:53:01.311Z,1612.00
2018-04-27T04:54:01.360Z,1704.00
2018-04-27T04:55:54.356Z,1840.00
2018-04-27T04:56:54.397Z,1892.00
2018-04-27T04:58:47.385Z,1976.00
2018-04-27T04:59:47.443Z,2012.00
2018-04-27T05:01:40.431Z,2076.00
2018-04-27T05:02:40.485Z,2148.00
2018-04-27T05:04:33.469Z,2244.00
2018-04-27T05:05:33.521Z,2264.00
2018-04-27T05:07:26.500Z,2424.00
2018-04-27T05:08:26.558Z,2496.00
2018-04-27T05:10:19.541Z,2624.00
2018-04-27T05:11:19.594Z,2648.00
2018-04-27T05:13:12.608Z,2720.00
2018-04-27T05:14:12.663Z,2728.00
2018-04-27T05:16:05.656Z,2700.00
2018-04-27T05:17:05.707Z,2720.00
2018-04-27T05:18:58.684Z,2764.00
2018-04-27T05:19:58.745Z,2748.00
2018-04-27T05:21:51.743Z,2744.00
2018-04-27T05:22:51.779Z,2736.00
2018-04-27T05:24:44.767Z,2852.00
2018-04-27T05:25:44.815Z,2884.00
2018-04-27T05:27:37.795Z,3080.00
2018-04-27T05:28:37.853Z,3180.00
2018-04-27T05:30:30.844Z,3160.00
2018-04-27T05:31:30.889Z,3200.00
2018-04-27T05:33:23.869Z,3200.00
2018-04-27T05:34:23.925Z,3156.00
2018-04-27T05:36:16.917Z,3416.00
2018-04-27T05:37:16.962Z,3388.00
2018-04-27T05:39:09.945Z,3684.00
2018-04-27T05:40:10.002Z,4060.00
2018-04-27T05:42:03.039Z,4616.00
2018-04-27T05:43:03.038Z,4808.00
2018-04-27T05:44:56.024Z,4888.00
2018-04-27T05:45:56.076Z,5280.00
2018-04-27T05:47:49.056Z,5368.00
2018-04-27T05:48:49.115Z,5248.00
2018-04-27T05:50:42.147Z,5100.00
2018-04-27T05:51:42.195Z,5024.00
2018-04-27T05:53:35.692Z,4556.00
2018-04-27T05:54:35.743Z,4516.00
2018-04-27T05:56:28.728Z,4800.00
2018-04-27T05:57:28.781Z,5184.00
2018-04-27T05:59:21.762Z,5852.00
2018-04-27T06:00:21.821Z,6324.00
2018-04-27T06:02:14.807Z,7308.00
2018-04-27T06:03:14.859Z,7236.00
2018-04-27T06:05:07.855Z,8548.00
2018-04-27T06:06:07.906Z,9032.00
2018-04-27T06:08:00.887Z,10476.00
2018-04-27T06:09:00.945Z,10836.00
2018-04-27T06:10:53.936Z,11100.00
2018-04-27T06:11:53.985Z,11504.00
2018-04-27T06:13:46.967Z,13844.00
2018-04-27T06:14:47.027Z,14380.00
2018-04-27T06:16:40.017Z,14768.00
2018-04-27T06:17:40.066Z,16640.00
2018-04-27T06:19:33.047Z,17216.00
2018-04-27T06:20:33.107Z,17600.00
2018-04-27T06:22:26.099Z,17696.00
2018-04-27T06:23:26.152Z,16576.00
2018-04-27T06:25:19.145Z,14804.00
2018-04-27T06:26:19.198Z,13664.00
2018-04-27T06:28:12.185Z,12396.00
2018-04-27T06:29:12.247Z,13280.00
2018-04-27T06:31:05.237Z,14136.00
2018-04-27T06:32:05.296Z,14792.00
2018-04-27T06:33:58.290Z,15680.00
2018-04-27T06:34:58.353Z,16064.00
2018-04-27T06:36:51.349Z,16160.00
2018-04-27T06:37:51.405Z,16384.00
2018-04-27T06:39:44.394Z,15936.00
2018-04-27T06:40:44.474Z,14544.00
2018-04-27T06:42:37.463Z,16672.00
2018-04-27T06:43:37.530Z,17152.00
2018-04-27T06:45:30.519Z,17664.00
2018-04-27T06:46:30.580Z,18304.00
2018-04-27T06:48:23.579Z,20128.00
2018-04-27T06:49:23.637Z,21280.00
2018-04-27T06:51:16.639Z,32800.00
2018-04-27T06:52:16.697Z,47200.00
2018-04-27T06:54:09.701Z,63008.00
2018-04-27T06:55:09.766Z,62240.00
2018-04-27T06:57:02.768Z,57504.00
2018-04-27T06:58:02.825Z,55072.00
2018-04-27T06:59:55.827Z,50144.00
2018-04-27T07:00:55.893Z,47488.00
2018-04-27T07:02:48.905Z,40160.00
2018-04-27T07:03:48.959Z,35584.00
2018-04-27T07:05:41.967Z,36224.00
2018-04-27T07:06:42.029Z,39072.00
2018-04-27T07:08:35.026Z,33632.00
2018-04-27T07:09:35.096Z,35744.00
2018-04-27T07:11:28.109Z,33088.00
2018-04-27T07:12:28.167Z,28544.00
2018-04-27T07:14:21.167Z,32416.00
2018-04-27T07:15:21.236Z,30944.00
2018-04-27T07:17:14.243Z,36128.00
2018-04-27T07:18:14.302Z,36768.00
2018-04-27T07:20:07.308Z,37120.00
2018-04-27T07:21:07.373Z,38144.00
2018-04-27T07:23:00.384Z,33600.00
2018-04-27T07:24:00.444Z,27232.00
2018-04-27T07:25:53.511Z,41952.00
2018-04-27T07:26:53.513Z,42848.00
2018-04-27T07:28:46.517Z,45152.00
2018-04-27T07:29:46.582Z,48512.00
2018-04-27T07:31:39.592Z,51776.00
2018-04-27T07:32:39.656Z,51872.00
2018-04-27T07:34:32.663Z,46496.00
2018-04-27T07:35:32.731Z,42272.00
2018-04-27T07:37:25.740Z,41312.00
2018-04-27T07:38:25.802Z,42528.00
2018-04-27T07:40:18.815Z,40448.00
2018-04-27T07:41:18.890Z,39648.00
2018-04-27T07:43:11.902Z,39104.00
2018-04-27T07:44:11.969Z,38144.00
2018-04-27T07:46:04.981Z,39744.00
2018-04-27T07:47:05.046Z,40960.00
2018-04-27T07:48:58.052Z,42816.00
2018-04-27T07:49:58.120Z,45216.00
2018-04-27T07:51:51.140Z,40864.00
2018-04-27T07:52:51.207Z,39968.00
2018-04-27T07:54:44.217Z,40480.00
2018-04-27T07:55:44.285Z,40288.00
2018-04-27T07:57:37.300Z,43104.00
2018-04-27T07:58:37.367Z,44992.00
2018-04-27T08:00:30.378Z,54144.00
2018-04-27T08:01:30.452Z,60192.00
2018-04-27T08:03:23.467Z,58304.00
2018-04-27T08:04:23.532Z,59072.00
2018-04-27T08:06:16.564Z,63136.00
2018-04-27T08:07:16.663Z,63488.00
2018-04-27T08:09:09.640Z,56352.00
2018-04-27T08:10:09.720Z,57536.00
2018-04-27T08:12:02.726Z,55872.00
2018-04-27T08:13:02.792Z,55104.00
2018-04-27T08:14:55.800Z,52096.00
2018-04-27T08:15:55.869Z,52448.00
2018-04-27T08:17:48.890Z,49184.00
2018-04-27T08:18:48.956Z,50496.00
2018-04-27T08:20:41.961Z,45312.00
2018-04-27T08:21:42.032Z,41792.00
2018-04-27T08:23:35.038Z,40512.00
2018-04-27T08:24:35.162Z,37728.00
2018-04-27T08:26:28.112Z,38496.00
2018-04-27T08:27:28.177Z,37920.00
2018-04-27T08:29:21.197Z,32640.00
2018-04-27T08:30:21.262Z,31552.00
2018-04-27T08:32:14.262Z,26272.00
2018-04-27T08:33:14.323Z,23424.00
2018-04-27T08:35:07.329Z,20544.00
2018-04-27T08:36:07.425Z,18592.00
2018-04-27T08:38:00.404Z,18016.00
2018-04-27T08:39:00.476Z,18112.00
2018-04-27T08:40:53.471Z,17792.00
2018-04-27T08:41:53.538Z,17920.00
2018-04-27T08:43:46.616Z,17216.00
2018-04-27T08:44:46.601Z,16480.00
2018-04-27T08:46:39.605Z,15904.00
2018-04-27T08:47:39.666Z,15692.00
2018-04-27T08:49:32.664Z,15752.00
2018-04-27T08:50:32.827Z,16576.00
2018-04-27T08:52:25.733Z,19072.00
2018-04-27T08:53:25.796Z,18080.00
2018-04-27T08:55:18.793Z,18400.00
2018-04-27T08:56:18.855Z,19168.00
2018-04-27T08:58:11.859Z,18336.00
2018-04-27T08:59:11.917Z,20608.00
2018-04-27T09:01:04.918Z,19392.00
2018-04-27T09:02:04.985Z,20480.00
2018-04-27T09:03:57.995Z,21440.00
2018-04-27T09:04:58.059Z,21792.00
2018-04-27T09:06:51.056Z,26848.00
2018-04-27T09:07:51.116Z,26304.00
2018-04-27T09:09:44.111Z,31360.00
2018-04-27T09:10:44.177Z,29632.00
2018-04-27T09:12:37.182Z,33408.00
2018-04-27T09:13:37.239Z,27936.00
2018-04-27T09:15:30.241Z,36672.00
2018-04-27T09:16:30.301Z,32320.00
2018-04-27T09:18:23.313Z,25120.00
2018-04-27T09:19:23.376Z,24160.00
2018-04-27T09:21:16.370Z,24576.00
2018-04-27T09:22:16.437Z,24128.00
2018-04-27T09:25:09.496Z,21408.00
2018-04-27T09:27:02.497Z,23584.00
2018-04-27T09:28:02.559Z,24512.00
2018-04-27T09:29:55.553Z,24608.00
2018-04-27T09:30:55.620Z,24128.00
2018-04-27T09:32:48.623Z,23584.00
2018-04-27T09:33:48.681Z,22112.00
2018-04-27T09:35:41.678Z,22720.00
2018-04-27T09:36:41.745Z,22912.00
2018-04-27T09:38:34.747Z,22656.00
2018-04-27T09:39:34.811Z,23136.00
2018-04-27T09:41:27.804Z,22656.00
2018-04-27T09:42:27.872Z,22880.00
2018-04-27T09:44:20.882Z,22784.00
2018-04-27T09:45:20.934Z,23296.00
2018-04-27T09:47:13.931Z,22624.00
2018-04-27T09:48:13.990Z,21888.00
2018-04-27T09:50:06.986Z,21344.00
2018-04-27T09:51:07.048Z,20320.00
2018-04-27T09:53:00.564Z,19264.00
2018-04-27T09:54:00.619Z,19104.00
2018-04-27T09:55:53.625Z,18688.00
2018-04-27T09:56:53.688Z,18592.00
2018-04-27T09:58:46.690Z,18304.00
2018-04-27T09:59:46.748Z,18048.00
2018-04-27T10:01:39.742Z,18048.00
2018-04-27T10:02:39.808Z,17920.00
2018-04-27T10:04:32.809Z,18208.00
2018-04-27T10:05:32.867Z,18496.00
2018-04-27T10:07:25.867Z,18464.00
2018-04-27T10:08:25.927Z,18336.00
2018-04-27T10:10:18.924Z,18272.00
2018-04-27T10:11:18.988Z,18144.00
2018-04-27T10:13:11.996Z,17536.00
2018-04-27T10:14:12.053Z,17376.00
2018-04-27T10:16:05.047Z,17312.00
2018-04-27T10:17:05.112Z,17120.00
2018-04-27T10:18:58.115Z,16864.00
2018-04-27T10:19:58.174Z,16672.00
2018-04-27T10:21:51.173Z,16140.00
2018-04-27T10:22:51.240Z,15928.00
2018-04-27T10:24:44.242Z,15996.00
2018-04-27T10:25:44.300Z,15952.00
2018-04-27T10:27:37.302Z,16992.00
2018-04-27T10:28:37.362Z,16992.00
2018-04-27T10:30:30.354Z,17184.00
2018-04-27T10:31:30.420Z,17184.00
2018-04-27T10:33:23.421Z,16260.00
2018-04-27T10:34:23.480Z,16120.00
2018-04-27T10:36:16.478Z,15480.00
2018-04-27T10:37:16.540Z,15276.00
2018-04-27T10:39:09.544Z,15232.00
2018-04-27T10:40:09.602Z,14808.00
2018-04-27T10:42:02.595Z,14192.00
2018-04-27T10:43:02.746Z,14276.00
2018-04-27T10:44:55.660Z,14128.00
2018-04-27T10:45:55.720Z,13696.00
2018-04-27T10:47:48.727Z,13872.00
2018-04-27T10:48:48.778Z,15412.00
2018-04-27T10:50:41.774Z,15216.00
2018-04-27T10:51:41.840Z,15044.00
2018-04-27T10:53:35.350Z,14892.00
2018-04-27T10:54:35.406Z,14964.00
2018-04-27T10:56:28.399Z,15060.00
2018-04-27T10:57:28.464Z,14628.00
2018-04-27T10:59:21.465Z,13920.00
2018-04-27T11:00:21.530Z,14052.00
2018-04-27T11:02:14.522Z,14072.00
2018-04-27T11:03:14.631Z,14820.00
2018-04-27T11:05:07.585Z,15620.00
2018-04-27T11:06:07.645Z,15892.00
2018-04-27T11:08:00.648Z,16248.00
2018-04-27T11:09:00.704Z,16360.00
2018-04-27T11:10:53.712Z,16640.00
2018-04-27T11:11:54.124Z,16864.00
2018-04-27T11:13:46.763Z,17088.00
2018-04-27T11:14:46.822Z,17376.00
2018-04-27T11:16:39.816Z,18112.00
2018-04-27T11:17:39.884Z,18368.00
2018-04-27T11:19:32.884Z,18112.00
2018-04-27T11:20:32.940Z,17632.00
2018-04-27T11:22:25.944Z,16864.00
2018-04-27T11:23:26.007Z,16704.00
2018-04-27T11:25:19.014Z,16416.00
2018-04-27T11:26:19.072Z,15916.00
2018-04-27T11:28:12.073Z,14352.00
2018-04-27T11:29:12.131Z,13708.00
2018-04-27T11:31:05.126Z,13840.00
2018-04-27T11:32:05.191Z,13860.00
2018-04-27T11:33:58.194Z,13372.00
2018-04-27T11:34:58.250Z,13184.00
2018-04-27T11:36:51.257Z,13648.00
2018-04-27T11:37:51.437Z,12788.00
2018-04-27T11:39:44.317Z,11236.00
2018-04-27T11:40:44.374Z,10964.00
2018-04-27T11:42:37.378Z,11844.00
2018-04-27T11:43:37.449Z,12388.00
2018-04-27T11:45:30.437Z,11984.00
2018-04-27T11:46:30.496Z,12780.00
2018-04-27T11:48:23.497Z,11732.00
2018-04-27T11:49:23.554Z,10544.00
2018-04-27T11:51:16.549Z,10208.00
2018-04-27T11:52:16.615Z,11696.00
2018-04-27T11:54:09.615Z,11008.00
2018-04-27T11:55:09.674Z,11088.00
2018-04-27T11:57:02.681Z,10252.00
2018-04-27T11:58:02.740Z,10240.00
2018-04-27T11:59:55.742Z,10572.00
2018-04-27T12:00:55.801Z,11548.00
2018-04-27T12:02:48.797Z,11844.00
2018-04-27T12:03:48.866Z,12036.00
2018-04-27T12:05:41.859Z,12684.00
2018-04-27T12:06:41.920Z,12180.00
2018-04-27T12:08:34.920Z,10536.00
2018-04-27T12:09:34.978Z,10304.00
2018-04-27T12:11:27.971Z,9620.00
2018-04-27T12:12:28.036Z,10232.00
2018-04-27T12:14:21.038Z,11068.00
2018-04-27T12:15:21.106Z,11068.00
2018-04-27T12:17:14.090Z,12164.00
2018-04-27T12:18:14.154Z,11780.00
2018-04-27T12:20:07.187Z,11356.00
2018-04-27T12:21:07.211Z,11012.00
2018-04-27T12:23:00.212Z,9880.00
2018-04-27T12:24:00.272Z,10548.00
2018-04-27T12:25:53.279Z,10892.00
2018-04-27T12:26:53.339Z,11424.00
2018-04-27T12:28:46.338Z,11260.00
2018-04-27T12:29:46.398Z,10784.00
2018-04-27T12:31:39.500Z,10104.00
2018-04-27T12:32:39.458Z,10616.00
2018-04-27T12:34:32.464Z,9488.00
2018-04-27T12:35:32.519Z,9364.00
2018-04-27T12:37:25.505Z,9572.00
2018-04-27T12:38:25.574Z,9276.00
2018-04-27T12:40:18.588Z,9148.00
2018-04-27T12:41:18.635Z,9740.00
2018-04-27T12:43:11.627Z,9684.00
2018-04-27T12:44:11.703Z,8868.00
2018-04-27T12:46:05.204Z,8276.00
2018-04-27T12:47:05.259Z,8396.00
2018-04-27T12:48:58.268Z,9652.00
2018-04-27T12:49:58.323Z,9904.00
2018-04-27T12:51:51.317Z,10304.00
2018-04-27T12:52:51.381Z,10264.00
2018-04-27T12:54:44.380Z,10984.00
2018-04-27T12:55:44.439Z,11324.00
2018-04-27T12:57:37.436Z,9960.00
2018-04-27T12:58:37.498Z,9088.00
2018-04-27T13:00:30.521Z,12792.00
2018-04-27T13:01:30.565Z,14012.00
2018-04-27T13:03:23.590Z,10848.00
2018-04-27T13:04:23.657Z,8024.00
2018-04-27T13:06:16.659Z,8948.00
2018-04-27T13:07:16.714Z,9924.00
2018-04-27T13:09:09.715Z,10324.00
2018-04-27T13:10:09.773Z,10892.00
2018-04-27T13:12:02.767Z,12036.00
2018-04-27T13:13:02.832Z,11748.00
2018-04-27T13:14:55.843Z,13380.00
2018-04-27T13:15:55.897Z,13304.00
2018-04-27T13:17:48.900Z,14420.00
2018-04-27T13:18:48.965Z,16704.00
2018-04-27T13:20:41.965Z,14308.00
2018-04-27T13:21:42.026Z,13612.00
2018-04-27T13:23:35.017Z,12248.00
2018-04-27T13:24:35.086Z,11260.00
2018-04-27T13:26:28.095Z,8692.00
2018-04-27T13:27:28.140Z,8152.00
2018-04-27T13:29:21.143Z,8912.00
2018-04-27T13:30:21.203Z,10280.00
2018-04-27T13:32:14.197Z,9464.00
2018-04-27T13:33:14.260Z,9808.00
2018-04-27T13:35:07.264Z,8992.00
2018-04-27T13:36:07.319Z,7896.00
2018-04-27T13:38:00.321Z,10228.00
2018-04-27T13:39:00.389Z,11580.00
2018-04-27T13:40:53.382Z,12812.00
2018-04-27T13:41:53.440Z,11816.00
2018-04-27T13:43:46.437Z,10920.00
2018-04-27T13:44:46.499Z,9712.00
2018-04-27T13:46:39.503Z,6776.00
2018-04-27T13:47:39.565Z,7084.00
2018-04-27T13:49:32.561Z,10292.00
2018-04-27T13:50:32.616Z,10060.00
2018-04-27T13:52:25.610Z,7208.00
2018-04-27T13:53:25.844Z,6052.00
2018-04-27T13:55:18.677Z,6316.00
2018-04-27T13:56:18.737Z,6100.00
2018-04-27T13:58:11.727Z,6548.00
2018-04-27T13:59:11.793Z,6916.00
2018-04-27T14:01:04.792Z,8404.00
2018-04-27T14:02:04.869Z,9676.00
2018-04-27T14:03:57.850Z,11024.00
2018-04-27T14:04:57.910Z,10708.00
2018-04-27T14:06:50.910Z,8680.00
2018-04-27T14:07:50.968Z,8136.00
2018-04-27T14:09:43.974Z,7056.00
2018-04-27T14:10:44.029Z,6996.00
2018-04-27T14:12:37.021Z,6772.00
2018-04-27T14:13:37.084Z,7112.00
2018-04-27T14:15:30.089Z,5896.00
2018-04-27T14:16:30.139Z,4248.00
2018-04-27T14:18:23.132Z,4544.00
2018-04-27T14:19:23.198Z,4844.00
2018-04-27T14:21:37.222Z,6268.00
2018-04-27T14:22:16.262Z,8776.00
2018-04-27T14:24:09.259Z,11340.00
2018-04-27T14:25:09.332Z,11296.00
2018-04-27T14:27:02.326Z,14000.00
2018-04-27T14:28:02.381Z,13688.00
2018-04-27T14:29:55.387Z,9556.00
2018-04-27T14:30:55.439Z,7656.00
2018-04-27T14:32:48.439Z,5000.00
2018-04-27T14:33:48.548Z,4500.00
2018-04-27T14:35:41.517Z,4560.00
2018-04-27T14:36:41.560Z,4932.00
2018-04-27T14:38:34.550Z,6092.00
2018-04-27T14:39:34.626Z,6012.00
2018-04-27T14:41:27.615Z,4932.00
2018-04-27T14:42:27.678Z,4644.00
2018-04-27T14:44:20.670Z,4416.00
2018-04-27T14:45:20.730Z,4276.00
2018-04-27T14:47:13.729Z,5028.00
2018-04-27T14:48:13.789Z,6300.00
2018-04-27T14:50:06.786Z,7256.00
2018-04-27T14:51:06.851Z,7396.00
2018-04-27T14:52:59.845Z,7340.00
2018-04-27T14:53:59.908Z,7812.00
2018-04-27T14:55:53.415Z,7272.00
2018-04-27T14:56:53.483Z,6060.00
2018-04-27T14:58:46.470Z,5044.00
2018-04-27T14:59:46.540Z,4788.00
2018-04-27T15:01:39.552Z,5520.00
2018-04-27T15:02:39.595Z,5712.00
2018-04-27T15:04:32.599Z,6228.00
2018-04-27T15:05:32.661Z,6616.00
2018-04-27T15:07:25.662Z,7164.00
2018-04-27T15:08:25.741Z,6760.00
2018-04-27T15:10:18.725Z,5052.00
2018-04-27T15:11:18.780Z,4460.00
2018-04-27T15:13:11.780Z,3764.00
2018-04-27T15:14:11.844Z,3740.00
2018-04-27T15:16:04.843Z,3396.00
2018-04-27T15:17:04.905Z,3296.00
2018-04-27T15:18:57.897Z,3308.00
2018-04-27T15:19:57.962Z,3384.00
2018-04-27T15:21:50.960Z,3556.00
2018-04-27T15:22:51.020Z,3776.00
2018-04-27T15:24:44.010Z,4288.00
2018-04-27T15:25:44.075Z,4452.00
2018-04-27T15:27:37.075Z,4116.00
2018-04-27T15:28:37.130Z,4088.00
2018-04-27T15:30:30.133Z,5132.00
2018-04-27T15:31:30.191Z,5680.00
2018-04-27T15:33:23.184Z,5732.00
2018-04-27T15:34:23.249Z,5504.00
2018-04-27T15:36:16.255Z,4780.00
2018-04-27T15:37:16.313Z,4624.00
2018-04-27T15:39:09.309Z,4680.00
2018-04-27T15:40:09.370Z,4932.00
2018-04-27T15:42:02.369Z,5276.00
2018-04-27T15:43:02.427Z,5240.00
2018-04-27T15:44:55.430Z,5512.00
2018-04-27T15:45:55.483Z,5276.00
2018-04-27T15:47:48.488Z,4924.00
2018-04-27T15:48:48.545Z,4528.00
2018-04-27T15:50:41.545Z,4784.00
2018-04-27T15:51:41.601Z,4828.00
2018-04-27T15:53:34.604Z,5520.00
2018-04-27T15:54:34.666Z,6140.00
2018-04-27T15:56:28.168Z,5912.00
2018-04-27T15:57:28.274Z,5436.00
2018-04-27T15:59:21.227Z,4792.00
2018-04-27T16:00:21.290Z,4728.00
2018-04-27T16:02:14.295Z,4016.00
2018-04-27T16:03:14.353Z,4024.00
2018-04-27T16:05:07.350Z,4368.00
2018-04-27T16:06:07.412Z,4792.00
2018-04-27T16:08:00.415Z,5684.00
2018-04-27T16:09:00.468Z,5540.00
2018-04-27T16:10:53.467Z,4816.00
2018-04-27T16:11:53.525Z,4936.00
2018-04-27T16:13:46.518Z,6280.00
2018-04-27T16:14:46.590Z,6912.00
2018-04-27T16:16:39.580Z,8056.00
2018-04-27T16:17:39.638Z,7044.00
2018-04-27T16:19:32.634Z,5792.00
2018-04-27T16:20:32.695Z,5172.00
2018-04-27T16:22:25.695Z,4060.00
2018-04-27T16:23:25.754Z,3776.00
2018-04-27T16:25:18.748Z,4156.00
2018-04-27T16:26:18.809Z,4036.00
2018-04-27T16:28:11.807Z,4044.00
2018-04-27T16:29:11.870Z,4120.00
2018-04-27T16:31:04.869Z,4040.00
2018-04-27T16:32:04.933Z,4052.00
2018-04-27T16:33:57.923Z,4424.00
2018-04-27T16:34:57.985Z,4536.00
2018-04-27T16:36:50.983Z,4988.00
2018-04-27T16:37:51.040Z,4940.00
2018-04-27T16:39:44.060Z,4672.00
2018-04-27T16:40:44.154Z,4592.00
2018-04-27T16:42:37.101Z,4488.00
2018-04-27T16:43:37.152Z,4592.00
2018-04-27T16:45:30.145Z,4416.00
2018-04-27T16:46:30.211Z,4360.00
2018-04-27T16:48:23.222Z,4300.00
2018-04-27T16:49:23.279Z,4312.00
2018-04-27T16:51:16.274Z,4460.00
2018-04-27T16:52:16.323Z,4548.00
2018-04-27T16:54:09.316Z,4364.00
2018-04-27T16:55:09.381Z,4364.00
2018-04-27T16:57:02.385Z,4108.00
2018-04-27T16:58:02.447Z,3856.00
2018-04-27T16:59:55.437Z,3076.00
2018-04-27T17:00:55.505Z,2600.00
2018-04-27T17:02:48.501Z,2332.00
2018-04-27T17:03:48.558Z,2264.00
2018-04-27T17:05:41.549Z,2252.00
2018-04-27T17:06:41.621Z,2276.00
2018-04-27T17:08:34.610Z,2080.00
2018-04-27T17:09:34.746Z,2060.00
2018-04-27T17:11:27.667Z,2044.00
2018-04-27T17:12:27.722Z,1964.00
2018-04-27T17:14:20.720Z,1844.00
2018-04-27T17:15:20.783Z,1852.00
2018-04-27T17:17:13.796Z,1864.00
2018-04-27T17:18:13.839Z,1840.00
2018-04-27T17:20:06.838Z,1952.00
2018-04-27T17:21:06.900Z,1988.00
2018-04-27T17:22:59.899Z,2052.00
2018-04-27T17:23:59.961Z,2052.00
2018-04-27T17:25:52.947Z,2048.00
2018-04-27T17:26:53.010Z,2060.00
2018-04-27T17:28:46.033Z,2108.00
2018-04-27T17:29:46.064Z,2028.00
2018-04-27T17:31:39.064Z,1916.00
2018-04-27T17:32:39.124Z,1880.00
2018-04-27T17:34:32.123Z,1816.00
2018-04-27T17:35:32.189Z,1772.00
2018-04-27T17:37:25.187Z,1776.00
2018-04-27T17:38:25.251Z,1772.00